Time;durP1;ratioP1;P1;durP2;ratioP2;P2;SDS_P1;SDS_P2;PMS_P1;PMS_P2;Temp;Humidity;BMP_temperature;BMP_pressure;BME280_temperature;BME280_humidity;BME280_pressure;Samples;Min_cycle;Max_cycle;Signal;HPM_P1;HPM_P2
2023/12/03 00:02:22;;;;;;;21.40;9.40;;;;;;;;;;5066078;28;20230;-74
2023/12/03 00:04:48;;;;;;;17.13;8.03;;;;;;;;;;5063416;28;20594;-73
2023/12/03 00:07:15;;;;;;;20.53;8.63;;;;;;;;;;5059955;28;20211;-74
2023/12/03 00:09:41;;;;;;;20.90;9.27;;;;;;;;;;5063997;28;20242;-74
2023/12/03 00:12:08;;;;;;;19.33;8.83;;;;;;;;;;5061035;28;20191;-75
2023/12/03 00:14:35;;;;;;;16.07;8.07;;;;;;;;;;5055947;28;20629;-75
2023/12/03 00:17:01;;;;;;;19.53;8.73;;;;;;;;;;5061724;28;20302;-75
2023/12/03 00:19:27;;;;;;;19.33;9.10;;;;;;;;;;5059963;28;20213;-74
2023/12/03 00:21:53;;;;;;;21.13;9.37;;;;;;;;;;5059277;28;20218;-73
2023/12/03 00:24:20;;;;;;;17.30;8.90;;;;;;;;;;5052503;28;20203;-74
2023/12/03 00:26:46;;;;;;;17.50;8.20;;;;;;;;;;5063356;28;20546;-74
2023/12/03 00:29:13;;;;;;;19.10;9.13;;;;;;;;;;5077939;28;20203;-74
2023/12/03 00:31:39;;;;;;;16.67;8.13;;;;;;;;;;5060913;28;20219;-73
2023/12/03 00:34:05;;;;;;;22.50;9.67;;;;;;;;;;5060150;28;20223;-74
2023/12/03 00:36:32;;;;;;;16.90;8.57;;;;;;;;;;5062624;28;20642;-74
2023/12/03 00:38:58;;;;;;;20.63;8.50;;;;;;;;;;5057558;28;20881;-73
2023/12/03 00:41:24;;;;;;;18.90;8.30;;;;;;;;;;5061055;28;20595;-73
2023/12/03 00:43:50;;;;;;;16.67;7.90;;;;;;;;;;5059998;28;20213;-72
2023/12/03 00:46:20;;;;;;;18.57;8.63;;;;;;;;;;5068639;28;20210;-73
2023/12/03 00:48:46;;;;;;;18.97;8.40;;;;;;;;;;5060371;28;20621;-74
2023/12/03 00:51:15;;;;;;;18.53;8.77;;;;;;;;;;5056324;28;20186;-74
2023/12/03 00:53:42;;;;;;;17.23;7.53;;;;;;;;;;5067115;28;20278;-73
2023/12/03 00:56:09;;;;;;;16.43;7.20;;;;;;;;;;5061078;28;20224;-73
2023/12/03 00:58:35;;;;;;;14.53;7.37;;;;;;;;;;5057643;28;20209;-74
2023/12/03 01:01:01;;;;;;;14.93;6.30;;;;;;;;;;5060912;28;20286;-74
2023/12/03 01:03:27;;;;;;;16.60;6.00;;;;;;;;;;5057436;28;20252;-74
2023/12/03 01:05:53;;;;;;;12.73;5.70;;;;;;;;;;5071013;28;20554;-73
2023/12/03 01:08:19;;;;;;;11.90;5.53;;;;;;;;;;5061192;28;20210;-74
2023/12/03 01:10:45;;;;;;;12.10;6.33;;;;;;;;;;5059970;28;20592;-73
2023/12/03 01:13:11;;;;;;;12.67;5.40;;;;;;;;;;5061159;28;20234;-74
2023/12/03 01:15:37;;;;;;;10.97;5.47;;;;;;;;;;5063069;28;20233;-75
2023/12/03 01:18:03;;;;;;;11.03;5.73;;;;;;;;;;5056955;28;20175;-74
2023/12/03 01:20:29;;;;;;;12.07;5.13;;;;;;;;;;5067075;28;20245;-74
2023/12/03 01:22:55;;;;;;;10.40;4.83;;;;;;;;;;5076535;28;20655;-73
2023/12/03 01:25:21;;;;;;;12.03;5.37;;;;;;;;;;5056151;28;20209;-74
2023/12/03 01:27:48;;;;;;;11.77;5.20;;;;;;;;;;5059723;28;20208;-74
2023/12/03 01:30:14;;;;;;;14.47;5.47;;;;;;;;;;5061362;28;20180;-75
2023/12/03 01:32:40;;;;;;;9.30;4.57;;;;;;;;;;5064974;28;20181;-74
2023/12/03 01:35:07;;;;;;;9.17;4.80;;;;;;;;;;5058755;28;20219;-75
2023/12/03 01:37:33;;;;;;;10.73;5.50;;;;;;;;;;5058132;28;20850;-75
2023/12/03 01:39:59;;;;;;;9.37;4.60;;;;;;;;;;5062426;28;20295;-74
2023/12/03 01:42:25;;;;;;;8.27;5.20;;;;;;;;;;5062319;28;20182;-73
2023/12/03 01:44:51;;;;;;;8.60;4.13;;;;;;;;;;5058842;28;20202;-75
2023/12/03 01:47:18;;;;;;;8.13;4.43;;;;;;;;;;5059395;28;20210;-75
2023/12/03 01:49:45;;;;;;;10.97;4.93;;;;;;;;;;5059424;28;20209;-74
2023/12/03 01:52:12;;;;;;;11.23;5.27;;;;;;;;;;5057987;28;20217;-75
2023/12/03 01:54:41;;;;;;;8.10;4.03;;;;;;;;;;5061016;28;20220;-74
2023/12/03 01:57:07;;;;;;;9.20;4.63;;;;;;;;;;5073875;28;20186;-73
2023/12/03 01:59:34;;;;;;;12.70;5.73;;;;;;;;;;5063713;28;20578;-75
2023/12/03 02:02:00;;;;;;;11.47;4.90;;;;;;;;;;5057621;28;20215;-75
2023/12/03 02:04:26;;;;;;;11.13;5.70;;;;;;;;;;5056157;28;20271;-75
2023/12/03 02:06:52;;;;;;;11.13;5.00;;;;;;;;;;5060364;28;20210;-75
2023/12/03 02:09:19;;;;;;;15.67;5.23;;;;;;;;;;5058632;28;20229;-75
2023/12/03 02:11:45;;;;;;;12.27;5.97;;;;;;;;;;5062678;28;20182;-73
2023/12/03 02:14:11;;;;;;;10.60;5.47;;;;;;;;;;5059585;28;20245;-74
2023/12/03 02:16:38;;;;;;;9.33;5.00;;;;;;;;;;5055708;28;20224;-75
2023/12/03 02:19:04;;;;;;;11.17;5.43;;;;;;;;;;5055951;28;20226;-74
2023/12/03 02:21:30;;;;;;;9.40;4.80;;;;;;;;;;5061898;28;20237;-73
2023/12/03 02:23:56;;;;;;;9.53;4.73;;;;;;;;;;5058610;28;20209;-73
2023/12/03 02:26:22;;;;;;;9.40;4.60;;;;;;;;;;5056624;28;20210;-75
2023/12/03 02:28:48;;;;;;;9.43;4.07;;;;;;;;;;5057326;28;20292;-73
2023/12/03 02:31:15;;;;;;;9.73;5.50;;;;;;;;;;5058240;28;20218;-75
2023/12/03 02:33:43;;;;;;;11.60;4.97;;;;;;;;;;5059942;28;20214;-74
2023/12/03 02:36:10;;;;;;;7.97;4.40;;;;;;;;;;5057518;28;20222;-75
2023/12/03 02:38:36;;;;;;;13.30;6.03;;;;;;;;;;5061622;28;20173;-75
2023/12/03 02:41:02;;;;;;;12.50;5.77;;;;;;;;;;5057901;28;20704;-73
2023/12/03 02:43:28;;;;;;;11.57;5.43;;;;;;;;;;5060665;28;20218;-75
2023/12/03 02:45:54;;;;;;;13.37;5.40;;;;;;;;;;5058844;28;20714;-75
2023/12/03 02:48:20;;;;;;;13.13;5.13;;;;;;;;;;5057771;28;20271;-74
2023/12/03 02:50:46;;;;;;;9.63;5.57;;;;;;;;;;5055873;28;20221;-74
2023/12/03 02:53:12;;;;;;;10.10;4.57;;;;;;;;;;5058765;28;20631;-75
2023/12/03 02:55:38;;;;;;;11.90;4.83;;;;;;;;;;5058906;28;20270;-74
2023/12/03 02:58:04;;;;;;;8.07;4.33;;;;;;;;;;5057885;28;20225;-74
2023/12/03 03:00:30;;;;;;;10.53;4.53;;;;;;;;;;5060437;28;20222;-75
2023/12/03 03:02:56;;;;;;;10.20;5.10;;;;;;;;;;5058394;28;20191;-75
2023/12/03 03:05:22;;;;;;;14.07;5.30;;;;;;;;;;5064820;28;20219;-74
2023/12/03 03:07:48;;;;;;;10.77;5.50;;;;;;;;;;5062709;28;20217;-75
2023/12/03 03:10:14;;;;;;;9.87;4.97;;;;;;;;;;5058551;28;20587;-75
2023/12/03 03:12:40;;;;;;;10.97;5.13;;;;;;;;;;5056669;28;20227;-75
2023/12/03 03:15:06;;;;;;;10.50;5.03;;;;;;;;;;5048763;28;20203;-73
2023/12/03 03:17:32;;;;;;;11.13;5.20;;;;;;;;;;5068635;28;20214;-74
2023/12/03 03:19:58;;;;;;;10.63;5.03;;;;;;;;;;5062143;28;20275;-74
2023/12/03 03:22:24;;;;;;;9.50;5.13;;;;;;;;;;5057343;28;20232;-75
2023/12/03 03:24:52;;;;;;;10.33;4.90;;;;;;;;;;5058133;28;20215;-74
2023/12/03 03:27:18;;;;;;;12.07;5.33;;;;;;;;;;5058349;28;20267;-74
2023/12/03 03:29:43;;;;;;;10.03;4.80;;;;;;;;;;5055757;28;20926;-74
2023/12/03 03:32:10;;;;;;;10.60;4.63;;;;;;;;;;5060296;28;20209;-74
2023/12/03 03:34:36;;;;;;;9.47;5.07;;;;;;;;;;5060665;28;20219;-75
2023/12/03 03:37:02;;;;;;;7.97;5.03;;;;;;;;;;5059421;28;20221;-74
2023/12/03 03:39:28;;;;;;;12.37;5.43;;;;;;;;;;5061867;28;20213;-74
2023/12/03 03:41:54;;;;;;;11.50;5.63;;;;;;;;;;5055179;28;20245;-74
2023/12/03 03:44:20;;;;;;;12.33;5.73;;;;;;;;;;5063603;28;20715;-74
2023/12/03 03:46:46;;;;;;;11.07;6.00;;;;;;;;;;5076514;28;20214;-74
2023/12/03 03:49:12;;;;;;;10.13;5.60;;;;;;;;;;5060223;28;20225;-74
2023/12/03 03:51:38;;;;;;;11.63;5.60;;;;;;;;;;5058608;28;20280;-74
2023/12/03 03:54:04;;;;;;;11.77;5.23;;;;;;;;;;5060862;28;20203;-75
2023/12/03 03:56:30;;;;;;;10.93;5.70;;;;;;;;;;5058932;28;20218;-75
2023/12/03 03:58:56;;;;;;;12.70;6.23;;;;;;;;;;5061228;28;20210;-75
2023/12/03 04:01:22;;;;;;;17.83;7.07;;;;;;;;;;5057227;28;20219;-75
2023/12/03 04:03:48;;;;;;;13.93;6.97;;;;;;;;;;5062618;28;20242;-73
2023/12/03 04:06:14;;;;;;;9.87;5.33;;;;;;;;;;5075084;28;20225;-74
2023/12/03 04:08:40;;;;;;;10.47;5.73;;;;;;;;;;5058826;28;20180;-73
2023/12/03 04:11:06;;;;;;;12.50;6.13;;;;;;;;;;5060153;28;20777;-73
2023/12/03 04:13:32;;;;;;;12.73;5.90;;;;;;;;;;5057846;28;20223;-74
2023/12/03 04:15:58;;;;;;;15.80;6.83;;;;;;;;;;5054399;28;20249;-74
2023/12/03 04:18:24;;;;;;;13.90;6.97;;;;;;;;;;5058674;28;20190;-74
2023/12/03 04:20:50;;;;;;;16.23;6.67;;;;;;;;;;5072742;28;20256;-74
2023/12/03 04:23:16;;;;;;;12.87;6.17;;;;;;;;;;5053611;28;20215;-74
2023/12/03 04:25:42;;;;;;;9.87;5.33;;;;;;;;;;5067673;28;20211;-73
2023/12/03 04:28:09;;;;;;;10.67;6.23;;;;;;;;;;5055526;28;20200;-74
2023/12/03 04:30:35;;;;;;;12.37;6.60;;;;;;;;;;5060415;28;20667;-73
2023/12/03 04:33:01;;;;;;;13.53;7.33;;;;;;;;;;5056335;28;20225;-74
2023/12/03 04:35:27;;;;;;;14.03;6.33;;;;;;;;;;5055080;28;20220;-73
2023/12/03 04:37:53;;;;;;;14.00;7.00;;;;;;;;;;5059557;28;20200;-74
2023/12/03 04:40:19;;;;;;;12.07;6.57;;;;;;;;;;5057160;28;20207;-74
2023/12/03 04:42:45;;;;;;;19.83;7.90;;;;;;;;;;5060154;28;20302;-74
2023/12/03 04:45:11;;;;;;;15.30;7.53;;;;;;;;;;5058734;28;20203;-71
2023/12/03 04:47:37;;;;;;;16.07;7.93;;;;;;;;;;5056714;28;20744;-74
2023/12/03 04:50:04;;;;;;;10.87;6.20;;;;;;;;;;5061143;28;20222;-75
2023/12/03 04:52:30;;;;;;;17.97;8.13;;;;;;;;;;5059554;28;20242;-75
2023/12/03 04:54:56;;;;;;;15.17;8.03;;;;;;;;;;5055701;28;20235;-74
2023/12/03 04:57:22;;;;;;;13.30;6.80;;;;;;;;;;5060461;28;20174;-72
2023/12/03 04:59:48;;;;;;;13.43;6.70;;;;;;;;;;5060244;28;20173;-74
2023/12/03 05:02:14;;;;;;;14.00;8.03;;;;;;;;;;5055043;28;20204;-72
2023/12/03 05:04:40;;;;;;;15.03;7.47;;;;;;;;;;5066891;28;20301;-73
2023/12/03 05:07:06;;;;;;;13.67;7.43;;;;;;;;;;5056712;28;20653;-74
2023/12/03 05:09:32;;;;;;;12.27;7.33;;;;;;;;;;5054849;28;20211;-74
2023/12/03 05:11:58;;;;;;;14.37;7.20;;;;;;;;;;5060885;28;20182;-73
2023/12/03 05:14:24;;;;;;;15.70;8.23;;;;;;;;;;5052029;28;20319;-74
2023/12/03 05:16:50;;;;;;;15.47;8.37;;;;;;;;;;5056282;28;20229;-74
2023/12/03 05:19:16;;;;;;;19.87;8.23;;;;;;;;;;5058727;28;20576;-73
2023/12/03 05:21:42;;;;;;;16.93;8.70;;;;;;;;;;5054469;28;20216;-74
2023/12/03 05:24:08;;;;;;;15.87;8.03;;;;;;;;;;5060610;28;20203;-74
2023/12/03 05:26:34;;;;;;;14.10;7.57;;;;;;;;;;5075033;28;20181;-74
2023/12/03 05:29:00;;;;;;;16.30;7.97;;;;;;;;;;5067381;28;20257;-74
2023/12/03 05:31:26;;;;;;;14.93;7.97;;;;;;;;;;5060186;28;20208;-74
2023/12/03 05:33:52;;;;;;;13.47;8.20;;;;;;;;;;5055895;28;20712;-74
2023/12/03 05:36:22;;;;;;;16.00;8.27;;;;;;;;;;5059483;28;20679;-73
2023/12/03 05:38:49;;;;;;;16.27;8.10;;;;;;;;;;5057137;28;20703;-73
2023/12/03 05:41:15;;;;;;;18.00;8.40;;;;;;;;;;5059158;28;20204;-74
2023/12/03 05:43:41;;;;;;;16.27;7.97;;;;;;;;;;5059567;28;20221;-74
2023/12/03 05:46:07;;;;;;;18.33;8.43;;;;;;;;;;5055276;28;20210;-74
2023/12/03 05:48:33;;;;;;;15.87;7.93;;;;;;;;;;5056168;28;20550;-72
2023/12/03 05:50:59;;;;;;;15.87;8.27;;;;;;;;;;5059453;28;20180;-73
2023/12/03 05:53:25;;;;;;;15.30;7.47;;;;;;;;;;5059766;28;20217;-74
2023/12/03 05:55:51;;;;;;;16.37;8.60;;;;;;;;;;5056497;28;20706;-73
2023/12/03 05:58:17;;;;;;;18.23;8.33;;;;;;;;;;5061546;28;20290;-74
2023/12/03 06:00:43;;;;;;;16.83;8.30;;;;;;;;;;5056619;28;20682;-72
2023/12/03 06:03:09;;;;;;;14.40;7.67;;;;;;;;;;5060420;28;20186;-74
2023/12/03 06:05:35;;;;;;;19.63;8.87;;;;;;;;;;5058662;28;20618;-74
2023/12/03 06:08:01;;;;;;;18.30;8.93;;;;;;;;;;5066165;28;20211;-74
2023/12/03 06:10:27;;;;;;;15.13;7.87;;;;;;;;;;5060202;28;20302;-74
2023/12/03 06:12:53;;;;;;;18.50;8.27;;;;;;;;;;5054802;28;20210;-73
2023/12/03 06:15:19;;;;;;;14.10;7.83;;;;;;;;;;5058042;28;20665;-72
2023/12/03 06:17:45;;;;;;;12.47;8.03;;;;;;;;;;5059519;28;20182;-74
2023/12/03 06:20:11;;;;;;;17.70;8.27;;;;;;;;;;5062258;28;20686;-74
2023/12/03 06:22:37;;;;;;;17.43;8.47;;;;;;;;;;5061029;28;20299;-74
2023/12/03 06:25:04;;;;;;;16.97;7.63;;;;;;;;;;5059544;28;20218;-74
2023/12/03 06:27:30;;;;;;;16.10;7.67;;;;;;;;;;5059874;28;20224;-73
2023/12/03 06:29:57;;;;;;;15.47;8.37;;;;;;;;;;5065699;28;20693;-73
2023/12/03 06:32:23;;;;;;;18.00;8.50;;;;;;;;;;5055604;28;20212;-72
2023/12/03 06:34:49;;;;;;;14.87;8.20;;;;;;;;;;5058676;28;20218;-73
2023/12/03 06:37:15;;;;;;;18.20;9.40;;;;;;;;;;5061738;28;20206;-74
2023/12/03 06:39:41;;;;;;;13.93;7.33;;;;;;;;;;5059534;28;20218;-74
2023/12/03 06:42:07;;;;;;;12.87;6.73;;;;;;;;;;5059806;28;20186;-73
2023/12/03 06:44:33;;;;;;;15.70;8.30;;;;;;;;;;5057956;28;20217;-74
2023/12/03 06:46:59;;;;;;;15.80;9.20;;;;;;;;;;5068757;28;20206;-73
2023/12/03 06:49:25;;;;;;;19.27;8.77;;;;;;;;;;5058165;28;20207;-74
2023/12/03 06:51:51;;;;;;;16.43;8.30;;;;;;;;;;5054815;28;20678;-74
2023/12/03 06:54:17;;;;;;;11.67;7.20;;;;;;;;;;5059972;28;20198;-74
2023/12/03 06:56:43;;;;;;;17.10;9.10;;;;;;;;;;5057581;28;20214;-73
2023/12/03 06:59:10;;;;;;;15.10;7.70;;;;;;;;;;5061263;28;20687;-74
2023/12/03 07:01:36;;;;;;;15.73;8.10;;;;;;;;;;5057204;28;20250;-75
2023/12/03 07:04:02;;;;;;;16.10;8.43;;;;;;;;;;5059656;28;20737;-74
2023/12/03 07:06:28;;;;;;;14.20;7.73;;;;;;;;;;5059036;28;20215;-73
2023/12/03 07:08:54;;;;;;;16.43;7.40;;;;;;;;;;5057922;28;20184;-73
2023/12/03 07:11:20;;;;;;;17.97;7.83;;;;;;;;;;5054391;28;20301;-73
2023/12/03 07:13:47;;;;;;;19.17;8.67;;;;;;;;;;5057811;28;20223;-73
2023/12/03 07:16:15;;;;;;;22.03;9.70;;;;;;;;;;5059170;28;20222;-74
2023/12/03 07:18:42;;;;;;;19.10;9.37;;;;;;;;;;5053971;28;20221;-74
2023/12/03 07:21:09;;;;;;;18.40;8.77;;;;;;;;;;5054568;28;20173;-74
2023/12/03 07:23:35;;;;;;;16.73;8.47;;;;;;;;;;5058621;28;20213;-75
2023/12/03 07:26:01;;;;;;;17.53;8.77;;;;;;;;;;5059545;28;20210;-75
2023/12/03 07:28:27;;;;;;;19.80;8.83;;;;;;;;;;5058919;28;20213;-72
2023/12/03 07:30:53;;;;;;;17.47;8.57;;;;;;;;;;5054209;28;20223;-75
2023/12/03 07:33:19;;;;;;;17.00;9.27;;;;;;;;;;5057107;28;20233;-75
2023/12/03 07:35:45;;;;;;;19.47;8.90;;;;;;;;;;5072417;28;20234;-75
2023/12/03 07:38:11;;;;;;;18.03;8.57;;;;;;;;;;5061324;28;20296;-74
2023/12/03 07:40:37;;;;;;;19.47;8.87;;;;;;;;;;5057640;28;20308;-75
2023/12/03 07:43:03;;;;;;;16.63;8.60;;;;;;;;;;5057941;28;20662;-74
2023/12/03 07:45:29;;;;;;;16.40;8.07;;;;;;;;;;5057657;28;20215;-72
2023/12/03 07:47:55;;;;;;;14.80;8.60;;;;;;;;;;5057719;28;20177;-75
2023/12/03 07:50:20;;;;;;;15.77;8.93;;;;;;;;;;5053282;28;20268;-74
2023/12/03 07:52:46;;;;;;;15.50;7.70;;;;;;;;;;5059925;28;20220;-74
2023/12/03 07:55:12;;;;;;;12.63;7.27;;;;;;;;;;5062823;28;20217;-75
2023/12/03 07:57:38;;;;;;;18.13;8.07;;;;;;;;;;5058410;28;20994;-74
2023/12/03 08:00:06;;;;;;;17.70;8.33;;;;;;;;;;5063539;28;20185;-75
2023/12/03 08:02:32;;;;;;;16.63;8.90;;;;;;;;;;5060027;28;20240;-73
2023/12/03 08:04:58;;;;;;;16.20;8.53;;;;;;;;;;5062142;28;20234;-75
2023/12/03 08:07:24;;;;;;;14.00;7.43;;;;;;;;;;5061118;28;20219;-75
2023/12/03 08:09:51;;;;;;;13.33;7.00;;;;;;;;;;5058199;28;20213;-74
2023/12/03 08:12:17;;;;;;;12.27;6.30;;;;;;;;;;5061666;28;20189;-75
2023/12/03 08:14:43;;;;;;;12.97;6.47;;;;;;;;;;5059881;28;20293;-73
2023/12/03 08:17:12;;;;;;;13.30;6.83;;;;;;;;;;5067823;28;20222;-75
2023/12/03 08:19:38;;;;;;;15.90;7.47;;;;;;;;;;5061830;28;20260;-74
2023/12/03 08:22:06;;;;;;;14.40;7.13;;;;;;;;;;5071067;28;20297;-74
2023/12/03 08:24:32;;;;;;;15.87;8.47;;;;;;;;;;5060529;28;20692;-72
2023/12/03 08:26:58;;;;;;;14.47;7.90;;;;;;;;;;5059841;28;20179;-74
2023/12/03 08:29:24;;;;;;;14.20;7.40;;;;;;;;;;5067673;28;20267;-74
2023/12/03 08:31:50;;;;;;;14.90;7.27;;;;;;;;;;5058452;28;20238;-74
2023/12/03 08:34:17;;;;;;;13.20;6.37;;;;;;;;;;5062682;28;20242;-74
2023/12/03 08:36:43;;;;;;;14.77;6.83;;;;;;;;;;5075233;28;20231;-74
2023/12/03 08:39:09;;;;;;;14.10;6.90;;;;;;;;;;5058538;28;20186;-75
2023/12/03 08:41:38;;;;;;;13.67;6.90;;;;;;;;;;5060415;28;20191;-74
2023/12/03 08:44:05;;;;;;;15.60;6.90;;;;;;;;;;5059100;28;20716;-75
2023/12/03 08:46:31;;;;;;;13.87;7.03;;;;;;;;;;5052192;28;20206;-75
2023/12/03 08:48:57;;;;;;;12.00;6.93;;;;;;;;;;5056775;28;20296;-75
2023/12/03 08:51:23;;;;;;;12.37;6.90;;;;;;;;;;5056156;28;20529;-74
2023/12/03 08:53:49;;;;;;;11.53;5.97;;;;;;;;;;5060377;28;20968;-74
2023/12/03 08:56:15;;;;;;;13.33;6.57;;;;;;;;;;5059554;28;20239;-75
2023/12/03 08:58:41;;;;;;;11.93;6.73;;;;;;;;;;5060219;28;20251;-74
2023/12/03 09:01:07;;;;;;;11.57;6.10;;;;;;;;;;5052254;28;20235;-72
2023/12/03 09:03:34;;;;;;;12.83;6.63;;;;;;;;;;5059980;28;20271;-75
2023/12/03 09:06:00;;;;;;;12.57;6.83;;;;;;;;;;5059897;28;20551;-74
2023/12/03 09:08:26;;;;;;;14.47;7.53;;;;;;;;;;5060425;28;20742;-74
2023/12/03 09:10:52;;;;;;;12.57;6.03;;;;;;;;;;5055910;28;20218;-74
2023/12/03 09:13:19;;;;;;;14.73;7.13;;;;;;;;;;5061387;28;20225;-73
2023/12/03 09:15:45;;;;;;;11.43;6.27;;;;;;;;;;5055656;28;20223;-73
2023/12/03 09:18:11;;;;;;;14.67;7.63;;;;;;;;;;5055769;28;20714;-74
2023/12/03 09:20:37;;;;;;;13.80;7.03;;;;;;;;;;5061987;28;20210;-75
2023/12/03 09:23:03;;;;;;;13.47;7.03;;;;;;;;;;5058271;28;20650;-73
2023/12/03 09:25:29;;;;;;;12.80;6.70;;;;;;;;;;5058006;28;20211;-73
2023/12/03 09:27:57;;;;;;;14.07;7.20;;;;;;;;;;5059656;28;20219;-74
2023/12/03 09:30:23;;;;;;;11.27;5.30;;;;;;;;;;5063154;28;20182;-74
2023/12/03 09:32:49;;;;;;;12.17;6.23;;;;;;;;;;5060578;28;20183;-74
2023/12/03 09:35:15;;;;;;;9.93;5.60;;;;;;;;;;5057837;28;20218;-73
2023/12/03 09:37:41;;;;;;;10.27;5.33;;;;;;;;;;5058310;28;20277;-73
2023/12/03 09:40:07;;;;;;;20.87;10.77;;;;;;;;;;5058990;28;20685;-73
2023/12/03 09:42:35;;;;;;;13.83;6.83;;;;;;;;;;5059560;28;20219;-74
2023/12/03 09:45:03;;;;;;;10.27;6.30;;;;;;;;;;5060969;28;20201;-73
2023/12/03 09:47:30;;;;;;;13.57;5.97;;;;;;;;;;5063062;28;20217;-73
2023/12/03 09:49:56;;;;;;;12.00;6.33;;;;;;;;;;5054794;28;20282;-73
2023/12/03 09:52:23;;;;;;;11.70;6.37;;;;;;;;;;5056636;28;20280;-72
2023/12/03 09:54:49;;;;;;;10.80;6.40;;;;;;;;;;5058747;28;20808;-73
2023/12/03 09:57:16;;;;;;;13.30;6.77;;;;;;;;;;5065901;28;20213;-74
2023/12/03 09:59:48;;;;;;;10.07;4.73;;;;;;;;;;5077198;28;20527;-73
2023/12/03 10:02:14;;;;;;;10.87;5.90;;;;;;;;;;5057161;28;20288;-73
2023/12/03 10:04:40;;;;;;;11.87;6.00;;;;;;;;;;5058911;28;20213;-74
2023/12/03 10:07:07;;;;;;;10.10;5.33;;;;;;;;;;5048500;28;20206;-73
2023/12/03 10:09:34;;;;;;;9.17;5.33;;;;;;;;;;5059369;28;20610;-73
2023/12/03 10:12:05;;;;;;;10.23;5.77;;;;;;;;;;5060377;28;20210;-73
2023/12/03 10:14:31;;;;;;;12.77;6.67;;;;;;;;;;5054517;28;20221;-74
2023/12/03 10:16:57;;;;;;;10.27;5.40;;;;;;;;;;5071081;28;20756;-74
2023/12/03 10:19:27;;;;;;;11.97;5.77;;;;;;;;;;5056996;28;20347;-74
2023/12/03 10:21:53;;;;;;;13.63;6.63;;;;;;;;;;5052919;28;20237;-73
2023/12/03 10:24:20;;;;;;;11.60;6.40;;;;;;;;;;5058095;28;20738;-74
2023/12/03 10:26:50;;;;;;;12.13;6.10;;;;;;;;;;5061535;28;20254;-73
2023/12/03 10:29:19;;;;;;;12.97;6.33;;;;;;;;;;5058304;28;20289;-74
2023/12/03 10:31:45;;;;;;;15.63;6.17;;;;;;;;;;5057485;28;20206;-74
2023/12/03 10:34:11;;;;;;;11.97;6.23;;;;;;;;;;5056589;28;20742;-75
2023/12/03 10:36:37;;;;;;;12.07;6.00;;;;;;;;;;5058483;28;20227;-74
2023/12/03 10:39:07;;;;;;;11.37;6.43;;;;;;;;;;5058789;28;20222;-74
2023/12/03 10:41:33;;;;;;;14.67;6.23;;;;;;;;;;5065562;28;20251;-75
2023/12/03 10:43:59;;;;;;;9.80;5.87;;;;;;;;;;5057219;28;20245;-75
2023/12/03 10:46:25;;;;;;;10.07;5.90;;;;;;;;;;5059768;28;20215;-74
2023/12/03 10:48:52;;;;;;;11.10;6.03;;;;;;;;;;5057454;28;20257;-73
2023/12/03 10:51:19;;;;;;;10.50;5.83;;;;;;;;;;5052855;28;20187;-75
2023/12/03 10:53:45;;;;;;;12.00;6.10;;;;;;;;;;5059062;28;20202;-75
2023/12/03 10:56:11;;;;;;;12.60;6.50;;;;;;;;;;5057433;28;20569;-74
2023/12/03 10:58:38;;;;;;;13.37;7.27;;;;;;;;;;5058039;28;20619;-75
2023/12/03 11:01:13;;;;;;;11.20;6.20;;;;;;;;;;5059718;28;20220;-74
2023/12/03 11:03:42;;;;;;;10.77;5.53;;;;;;;;;;5058683;28;20214;-74
2023/12/03 11:06:09;;;;;;;12.63;6.13;;;;;;;;;;5073691;28;20199;-75
2023/12/03 11:08:37;;;;;;;10.77;5.77;;;;;;;;;;5058523;28;20186;-75
2023/12/03 11:11:03;;;;;;;8.37;5.00;;;;;;;;;;5058436;28;20336;-73
2023/12/03 11:13:30;;;;;;;9.80;5.13;;;;;;;;;;5060383;28;20248;-73
2023/12/03 11:15:57;;;;;;;11.10;5.77;;;;;;;;;;5056208;28;20762;-73
2023/12/03 11:18:24;;;;;;;10.83;5.40;;;;;;;;;;5058505;28;20265;-74
2023/12/03 11:20:51;;;;;;;10.33;5.37;;;;;;;;;;5057689;28;20317;-73
2023/12/03 11:23:35;;;;;;;10.67;5.17;;;;;;;;;;5058034;28;20590;-73
2023/12/03 11:26:08;;;;;;;10.37;5.00;;;;;;;;;;5057321;28;20217;-74
2023/12/03 11:28:34;;;;;;;9.93;5.20;;;;;;;;;;5057210;28;20206;-76
2023/12/03 11:31:00;;;;;;;11.00;6.13;;;;;;;;;;5060901;28;20219;-73
2023/12/03 11:33:28;;;;;;;9.20;4.77;;;;;;;;;;5060841;28;20677;-73
2023/12/03 11:35:54;;;;;;;9.27;5.40;;;;;;;;;;5064542;28;20198;-73
2023/12/03 11:38:23;;;;;;;9.77;4.93;;;;;;;;;;5056148;28;20204;-73
2023/12/03 11:40:49;;;;;;;9.87;5.03;;;;;;;;;;5063292;28;20294;-73
2023/12/03 11:43:26;;;;;;;10.80;5.30;;;;;;;;;;5063636;28;20251;-74
2023/12/03 11:45:52;;;;;;;10.37;5.50;;;;;;;;;;5054856;28;20295;-72
2023/12/03 11:48:19;;;;;;;11.40;5.70;;;;;;;;;;5063257;28;20194;-74
2023/12/03 11:50:46;;;;;;;9.70;5.40;;;;;;;;;;5056220;28;20209;-74
2023/12/03 11:53:15;;;;;;;11.10;6.03;;;;;;;;;;5073677;28;20609;-74
2023/12/03 11:55:42;;;;;;;8.87;5.50;;;;;;;;;;5059826;28;20226;-73
2023/12/03 11:58:08;;;;;;;12.33;6.33;;;;;;;;;;5058055;28;20246;-73
2023/12/03 12:00:35;;;;;;;14.10;6.73;;;;;;;;;;5065771;28;20221;-75
2023/12/03 12:03:02;;;;;;;13.80;6.53;;;;;;;;;;5058507;28;20237;-75
2023/12/03 12:05:28;;;;;;;11.43;6.80;;;;;;;;;;5059141;28;20215;-73
2023/12/03 12:08:04;;;;;;;10.17;5.93;;;;;;;;;;5061221;28;20303;-74
2023/12/03 12:10:34;;;;;;;11.90;6.53;;;;;;;;;;5060277;28;20289;-75
2023/12/03 12:13:01;;;;;;;14.40;6.97;;;;;;;;;;5056346;28;20237;-75
2023/12/03 12:15:27;;;;;;;10.13;5.70;;;;;;;;;;5066666;28;20219;-74
2023/12/03 12:17:53;;;;;;;9.60;5.23;;;;;;;;;;5056854;28;20184;-73
2023/12/03 12:20:25;;;;;;;9.57;5.30;;;;;;;;;;5057843;28;20245;-74
2023/12/03 12:22:52;;;;;;;8.27;5.40;;;;;;;;;;5062133;28;20215;-75
2023/12/03 12:25:18;;;;;;;8.70;5.20;;;;;;;;;;5060690;28;20734;-74
2023/12/03 12:27:45;;;;;;;11.77;5.70;;;;;;;;;;5063081;28;20573;-74
2023/12/03 12:30:13;;;;;;;11.53;5.53;;;;;;;;;;5062580;28;20325;-74
2023/12/03 12:32:40;;;;;;;11.90;5.53;;;;;;;;;;5065014;28;20186;-74
2023/12/03 12:35:07;;;;;;;11.43;5.87;;;;;;;;;;5058651;28;20217;-75
2023/12/03 12:37:34;;;;;;;11.73;6.00;;;;;;;;;;5059684;28;20245;-73
2023/12/03 12:40:13;;;;;;;12.27;6.27;;;;;;;;;;5059333;28;20225;-74
2023/12/03 12:42:42;;;;;;;13.07;6.57;;;;;;;;;;5061280;28;20209;-74
2023/12/03 12:45:28;;;;;;;12.53;6.07;;;;;;;;;;5057633;28;20225;-74
2023/12/03 12:47:54;;;;;;;11.90;6.03;;;;;;;;;;5070142;28;20189;-73
2023/12/03 12:50:36;;;;;;;10.17;5.67;;;;;;;;;;5057572;28;20235;-74
2023/12/03 12:53:03;;;;;;;12.90;5.87;;;;;;;;;;5053827;28;20679;-74
2023/12/03 12:55:30;;;;;;;11.23;6.03;;;;;;;;;;5063443;28;20305;-74
2023/12/03 12:57:56;;;;;;;11.30;6.37;;;;;;;;;;5062427;28;20209;-74
2023/12/03 13:00:22;;;;;;;11.83;5.60;;;;;;;;;;5059164;28;20646;-75
2023/12/03 13:02:48;;;;;;;12.83;5.90;;;;;;;;;;5064487;28;20206;-74
2023/12/03 13:05:14;;;;;;;13.60;6.33;;;;;;;;;;5060148;28;20302;-74
2023/12/03 13:07:41;;;;;;;12.50;6.23;;;;;;;;;;5061240;28;20249;-73
2023/12/03 13:10:07;;;;;;;11.80;6.27;;;;;;;;;;5059123;28;20220;-75
2023/12/03 13:12:33;;;;;;;9.90;5.70;;;;;;;;;;5056405;28;20636;-73
2023/12/03 13:14:59;;;;;;;9.87;5.33;;;;;;;;;;5061046;28;20211;-74
2023/12/03 13:17:26;;;;;;;10.30;5.67;;;;;;;;;;5059088;28;20694;-74
2023/12/03 13:19:53;;;;;;;8.77;4.77;;;;;;;;;;5059970;28;20209;-73
2023/12/03 13:22:19;;;;;;;8.43;5.30;;;;;;;;;;5058914;28;20874;-75
2023/12/03 13:24:46;;;;;;;9.67;5.20;;;;;;;;;;5059689;28;20214;-74
2023/12/03 13:27:13;;;;;;;8.37;5.43;;;;;;;;;;5057000;28;20283;-75
2023/12/03 13:29:39;;;;;;;8.73;5.20;;;;;;;;;;5062256;28;20545;-72
2023/12/03 13:32:05;;;;;;;9.70;4.77;;;;;;;;;;5053112;28;20221;-75
2023/12/03 13:34:31;;;;;;;8.53;4.67;;;;;;;;;;5062577;28;20218;-75
2023/12/03 13:36:57;;;;;;;8.90;5.07;;;;;;;;;;5058396;28;20227;-74
2023/12/03 13:39:23;;;;;;;14.03;5.77;;;;;;;;;;5058017;28;20654;-75
2023/12/03 13:41:49;;;;;;;12.73;6.07;;;;;;;;;;5061130;28;20186;-74
2023/12/03 13:44:15;;;;;;;10.80;5.10;;;;;;;;;;5058184;28;20283;-73
2023/12/03 13:46:41;;;;;;;12.77;5.73;;;;;;;;;;5066572;28;20220;-74
2023/12/03 13:49:07;;;;;;;9.37;5.80;;;;;;;;;;5060069;28;20249;-74
2023/12/03 13:51:34;;;;;;;11.60;5.60;;;;;;;;;;5052850;28;20276;-74
2023/12/03 13:54:00;;;;;;;11.10;5.60;;;;;;;;;;5054688;28;20213;-73
2023/12/03 13:56:26;;;;;;;11.40;5.77;;;;;;;;;;5062036;28;20210;-74
2023/12/03 13:58:52;;;;;;;11.20;5.60;;;;;;;;;;5058979;28;20220;-75
2023/12/03 14:01:18;;;;;;;10.40;4.90;;;;;;;;;;5073683;28;20207;-74
2023/12/03 14:03:44;;;;;;;11.60;6.43;;;;;;;;;;5054578;28;20225;-74
2023/12/03 14:06:10;;;;;;;11.43;5.83;;;;;;;;;;5058523;28;20179;-74
2023/12/03 14:08:37;;;;;;;12.17;5.80;;;;;;;;;;5054568;28;20666;-75
2023/12/03 14:11:03;;;;;;;11.23;6.00;;;;;;;;;;5060564;28;20219;-73
2023/12/03 14:13:29;;;;;;;11.90;5.80;;;;;;;;;;5068372;28;20393;-74
2023/12/03 14:15:57;;;;;;;11.17;6.40;;;;;;;;;;5057507;28;20307;-74
2023/12/03 14:18:23;;;;;;;11.50;6.23;;;;;;;;;;5056433;28;20661;-74
2023/12/03 14:20:50;;;;;;;14.63;7.03;;;;;;;;;;5057289;28;20207;-74
2023/12/03 14:23:16;;;;;;;9.80;5.23;;;;;;;;;;5056821;28;20228;-73
2023/12/03 14:25:42;;;;;;;8.57;5.20;;;;;;;;;;5059220;28;20242;-75
2023/12/03 14:28:08;;;;;;;12.07;6.57;;;;;;;;;;5056830;28;20838;-73